sensor_id;sensor_type;location;lat;lon;timestamp;P1;durP1;ratioP1;P2;durP2;ratioP2
25023;SDS011;13033;50.936;5.334;2022-09-02T00:00:15;4.18;;;1.90;;
25023;SDS011;13033;50.936;5.334;2022-09-02T00:02:44;4.93;;;2.00;;
25023;SDS011;13033;50.936;5.334;2022-09-02T00:05:12;6.20;;;2.25;;
25023;SDS011;13033;50.936;5.334;2022-09-02T00:07:38;4.38;;;2.00;;
25023;SDS011;13033;50.936;5.334;2022-09-02T00:10:03;7.80;;;1.75;;
25023;SDS011;13033;50.936;5.334;2022-09-02T00:12:29;4.47;;;2.28;;
25023;SDS011;13033;50.936;5.334;2022-09-02T00:14:55;3.50;;;2.10;;
25023;SDS011;13033;50.936;5.334;2022-09-02T00:17:20;7.38;;;1.90;;
25023;SDS011;13033;50.936;5.334;2022-09-02T00:19:46;5.03;;;2.42;;
25023;SDS011;13033;50.936;5.334;2022-09-02T00:22:12;5.03;;;2.50;;
25023;SDS011;13033;50.936;5.334;2022-09-02T00:24:37;3.92;;;2.42;;
25023;SDS011;13033;50.936;5.334;2022-09-02T00:27:04;6.85;;;2.40;;
25023;SDS011;13033;50.936;5.334;2022-09-02T00:29:30;4.15;;;1.92;;
25023;SDS011;13033;50.936;5.334;2022-09-02T00:31:56;5.85;;;2.17;;
25023;SDS011;13033;50.936;5.334;2022-09-02T00:34:22;7.85;;;2.25;;
25023;SDS011;13033;50.936;5.334;2022-09-02T00:36:49;5.97;;;2.30;;
25023;SDS011;13033;50.936;5.334;2022-09-02T00:39:14;5.43;;;2.10;;
25023;SDS011;13033;50.936;5.334;2022-09-02T00:41:41;9.10;;;2.17;;
25023;SDS011;13033;50.936;5.334;2022-09-02T00:44:09;6.38;;;2.17;;
25023;SDS011;13033;50.936;5.334;2022-09-02T00:46:37;6.50;;;2.33;;
25023;SDS011;13033;50.936;5.334;2022-09-02T00:51:40;5.53;;;2.15;;
25023;SDS011;13033;50.936;5.334;2022-09-02T00:54:13;7.20;;;2.50;;
25023;SDS011;13033;50.936;5.334;2022-09-02T00:56:41;2.80;;;2.10;;
25023;SDS011;13033;50.936;5.334;2022-09-02T00:59:09;5.13;;;2.30;;
25023;SDS011;13033;50.936;5.334;2022-09-02T01:01:41;6.70;;;2.42;;
25023;SDS011;13033;50.936;5.334;2022-09-02T01:04:07;6.53;;;2.45;;
25023;SDS011;13033;50.936;5.334;2022-09-02T01:06:33;4.90;;;2.30;;
25023;SDS011;13033;50.936;5.334;2022-09-02T01:09:02;9.68;;;2.38;;
25023;SDS011;13033;50.936;5.334;2022-09-02T01:11:44;4.00;;;2.20;;
25023;SDS011;13033;50.936;5.334;2022-09-02T01:14:12;4.57;;;2.40;;
25023;SDS011;13033;50.936;5.334;2022-09-02T01:16:41;4.15;;;2.35;;
25023;SDS011;13033;50.936;5.334;2022-09-02T01:19:20;8.55;;;2.63;;
25023;SDS011;13033;50.936;5.334;2022-09-02T01:21:50;5.15;;;2.60;;
25023;SDS011;13033;50.936;5.334;2022-09-02T01:24:17;8.32;;;2.60;;
25023;SDS011;13033;50.936;5.334;2022-09-02T01:26:45;6.68;;;2.60;;
25023;SDS011;13033;50.936;5.334;2022-09-02T01:29:11;7.20;;;2.95;;
25023;SDS011;13033;50.936;5.334;2022-09-02T01:31:37;5.25;;;2.30;;
25023;SDS011;13033;50.936;5.334;2022-09-02T01:34:03;7.90;;;2.90;;
25023;SDS011;13033;50.936;5.334;2022-09-02T01:36:30;4.32;;;2.72;;
25023;SDS011;13033;50.936;5.334;2022-09-02T01:38:56;6.18;;;2.70;;
25023;SDS011;13033;50.936;5.334;2022-09-02T01:41:22;6.20;;;2.63;;
25023;SDS011;13033;50.936;5.334;2022-09-02T01:43:48;6.80;;;2.67;;
25023;SDS011;13033;50.936;5.334;2022-09-02T01:46:14;7.18;;;2.50;;
25023;SDS011;13033;50.936;5.334;2022-09-02T01:48:39;5.20;;;2.63;;
25023;SDS011;13033;50.936;5.334;2022-09-02T01:51:05;8.00;;;2.97;;
25023;SDS011;13033;50.936;5.334;2022-09-02T01:53:31;5.20;;;2.95;;
25023;SDS011;13033;50.936;5.334;2022-09-02T01:55:57;7.25;;;2.53;;
25023;SDS011;13033;50.936;5.334;2022-09-02T01:58:23;7.13;;;2.90;;
25023;SDS011;13033;50.936;5.334;2022-09-02T02:00:49;4.47;;;2.88;;
25023;SDS011;13033;50.936;5.334;2022-09-02T02:03:15;5.50;;;2.70;;
25023;SDS011;13033;50.936;5.334;2022-09-02T02:05:41;6.70;;;2.90;;
25023;SDS011;13033;50.936;5.334;2022-09-02T02:08:07;6.57;;;3.10;;
25023;SDS011;13033;50.936;5.334;2022-09-02T02:10:32;5.75;;;2.65;;
25023;SDS011;13033;50.936;5.334;2022-09-02T02:12:59;7.50;;;2.80;;
25023;SDS011;13033;50.936;5.334;2022-09-02T02:15:25;4.88;;;2.60;;
25023;SDS011;13033;50.936;5.334;2022-09-02T02:17:50;5.38;;;2.80;;
25023;SDS011;13033;50.936;5.334;2022-09-02T02:20:17;7.10;;;2.80;;
25023;SDS011;13033;50.936;5.334;2022-09-02T02:22:45;5.55;;;2.50;;
25023;SDS011;13033;50.936;5.334;2022-09-02T02:25:12;5.45;;;2.97;;
25023;SDS011;13033;50.936;5.334;2022-09-02T02:27:39;7.38;;;2.63;;
25023;SDS011;13033;50.936;5.334;2022-09-02T02:30:06;7.45;;;2.80;;
25023;SDS011;13033;50.936;5.334;2022-09-02T02:32:33;10.18;;;3.05;;
25023;SDS011;13033;50.936;5.334;2022-09-02T02:35:00;3.95;;;2.47;;
25023;SDS011;13033;50.936;5.334;2022-09-02T02:37:26;5.35;;;2.42;;
25023;SDS011;13033;50.936;5.334;2022-09-02T02:39:52;6.13;;;2.47;;
25023;SDS011;13033;50.936;5.334;2022-09-02T02:42:18;5.93;;;2.42;;
25023;SDS011;13033;50.936;5.334;2022-09-02T02:44:44;4.22;;;2.50;;
25023;SDS011;13033;50.936;5.334;2022-09-02T02:47:09;6.00;;;2.22;;
25023;SDS011;13033;50.936;5.334;2022-09-02T02:49:36;6.28;;;2.60;;
25023;SDS011;13033;50.936;5.334;2022-09-02T02:52:04;5.32;;;2.25;;
25023;SDS011;13033;50.936;5.334;2022-09-02T02:54:30;6.70;;;2.75;;
25023;SDS011;13033;50.936;5.334;2022-09-02T02:56:55;6.70;;;2.22;;
25023;SDS011;13033;50.936;5.334;2022-09-02T02:59:21;8.23;;;2.45;;
25023;SDS011;13033;50.936;5.334;2022-09-02T03:01:46;10.25;;;2.67;;
25023;SDS011;13033;50.936;5.334;2022-09-02T03:04:12;7.78;;;2.30;;
25023;SDS011;13033;50.936;5.334;2022-09-02T03:06:38;7.55;;;2.75;;
25023;SDS011;13033;50.936;5.334;2022-09-02T03:09:04;6.05;;;2.50;;
25023;SDS011;13033;50.936;5.334;2022-09-02T03:11:30;5.43;;;2.88;;
25023;SDS011;13033;50.936;5.334;2022-09-02T03:13:56;6.78;;;2.63;;
25023;SDS011;13033;50.936;5.334;2022-09-02T03:16:22;7.15;;;2.58;;
25023;SDS011;13033;50.936;5.334;2022-09-02T03:18:48;6.53;;;2.55;;
25023;SDS011;13033;50.936;5.334;2022-09-02T03:21:14;7.88;;;2.63;;
25023;SDS011;13033;50.936;5.334;2022-09-02T03:23:40;6.47;;;2.42;;
25023;SDS011;13033;50.936;5.334;2022-09-02T03:26:10;5.10;;;2.42;;
25023;SDS011;13033;50.936;5.334;2022-09-02T03:28:38;4.15;;;2.70;;
25023;SDS011;13033;50.936;5.334;2022-09-02T03:31:04;6.30;;;2.67;;
25023;SDS011;13033;50.936;5.334;2022-09-02T03:33:30;7.70;;;2.90;;
25023;SDS011;13033;50.936;5.334;2022-09-02T03:35:56;5.95;;;2.72;;
25023;SDS011;13033;50.936;5.334;2022-09-02T03:38:22;8.00;;;2.63;;
25023;SDS011;13033;50.936;5.334;2022-09-02T03:40:48;5.10;;;2.67;;
25023;SDS011;13033;50.936;5.334;2022-09-02T03:43:13;5.90;;;2.97;;
25023;SDS011;13033;50.936;5.334;2022-09-02T03:45:39;6.82;;;2.70;;
25023;SDS011;13033;50.936;5.334;2022-09-02T03:48:06;8.25;;;3.38;;
25023;SDS011;13033;50.936;5.334;2022-09-02T03:50:38;5.30;;;2.63;;
25023;SDS011;13033;50.936;5.334;2022-09-02T03:53:06;6.70;;;3.30;;
25023;SDS011;13033;50.936;5.334;2022-09-02T03:55:32;9.55;;;2.63;;
25023;SDS011;13033;50.936;5.334;2022-09-02T03:58:00;7.90;;;2.85;;
25023;SDS011;13033;50.936;5.334;2022-09-02T04:00:25;10.60;;;2.97;;
25023;SDS011;13033;50.936;5.334;2022-09-02T04:02:56;7.82;;;3.30;;
25023;SDS011;13033;50.936;5.334;2022-09-02T04:05:22;6.40;;;3.28;;
25023;SDS011;13033;50.936;5.334;2022-09-02T04:07:48;11.65;;;2.97;;
25023;SDS011;13033;50.936;5.334;2022-09-02T04:10:16;5.53;;;3.38;;
25023;SDS011;13033;50.936;5.334;2022-09-02T04:12:43;9.48;;;3.50;;
25023;SDS011;13033;50.936;5.334;2022-09-02T04:15:09;6.72;;;2.90;;
25023;SDS011;13033;50.936;5.334;2022-09-02T04:17:37;7.65;;;2.90;;
25023;SDS011;13033;50.936;5.334;2022-09-02T04:20:04;7.60;;;3.60;;
25023;SDS011;13033;50.936;5.334;2022-09-02T04:22:32;12.07;;;3.60;;
25023;SDS011;13033;50.936;5.334;2022-09-02T04:24:58;5.78;;;3.30;;
25023;SDS011;13033;50.936;5.334;2022-09-02T04:27:23;8.32;;;3.42;;
25023;SDS011;13033;50.936;5.334;2022-09-02T04:29:49;7.57;;;3.92;;
25023;SDS011;13033;50.936;5.334;2022-09-02T04:32:15;7.30;;;3.35;;
25023;SDS011;13033;50.936;5.334;2022-09-02T04:34:41;7.70;;;3.30;;
25023;SDS011;13033;50.936;5.334;2022-09-02T04:37:06;5.20;;;3.58;;
25023;SDS011;13033;50.936;5.334;2022-09-02T04:39:32;5.32;;;3.38;;
25023;SDS011;13033;50.936;5.334;2022-09-02T04:41:58;9.02;;;3.40;;
25023;SDS011;13033;50.936;5.334;2022-09-02T04:44:24;5.47;;;3.25;;
25023;SDS011;13033;50.936;5.334;2022-09-02T04:46:50;4.82;;;3.10;;
25023;SDS011;13033;50.936;5.334;2022-09-02T04:49:16;5.13;;;3.35;;
25023;SDS011;13033;50.936;5.334;2022-09-02T04:51:41;8.15;;;3.20;;
25023;SDS011;13033;50.936;5.334;2022-09-02T04:54:07;8.23;;;3.42;;
25023;SDS011;13033;50.936;5.334;2022-09-02T04:56:33;9.65;;;3.35;;
25023;SDS011;13033;50.936;5.334;2022-09-02T04:58:59;8.23;;;3.47;;
25023;SDS011;13033;50.936;5.334;2022-09-02T05:01:26;8.63;;;3.40;;
25023;SDS011;13033;50.936;5.334;2022-09-02T05:03:54;8.90;;;4.05;;
25023;SDS011;13033;50.936;5.334;2022-09-02T05:06:21;13.82;;;4.18;;
25023;SDS011;13033;50.936;5.334;2022-09-02T05:08:53;15.18;;;4.45;;
25023;SDS011;13033;50.936;5.334;2022-09-02T05:11:21;10.77;;;3.33;;
25023;SDS011;13033;50.936;5.334;2022-09-02T05:13:55;10.73;;;4.05;;
25023;SDS011;13033;50.936;5.334;2022-09-02T05:16:24;8.10;;;3.90;;
25023;SDS011;13033;50.936;5.334;2022-09-02T05:18:52;12.05;;;3.58;;
25023;SDS011;13033;50.936;5.334;2022-09-02T05:21:19;9.63;;;3.40;;
25023;SDS011;13033;50.936;5.334;2022-09-02T05:23:47;14.65;;;4.40;;
25023;SDS011;13033;50.936;5.334;2022-09-02T05:26:13;12.75;;;4.13;;
25023;SDS011;13033;50.936;5.334;2022-09-02T05:28:39;9.80;;;3.80;;
25023;SDS011;13033;50.936;5.334;2022-09-02T05:31:06;9.95;;;3.58;;
25023;SDS011;13033;50.936;5.334;2022-09-02T05:33:35;13.57;;;3.90;;
25023;SDS011;13033;50.936;5.334;2022-09-02T05:36:02;19.42;;;4.85;;
25023;SDS011;13033;50.936;5.334;2022-09-02T05:38:29;14.52;;;3.97;;
25023;SDS011;13033;50.936;5.334;2022-09-02T05:40:55;13.55;;;3.95;;
25023;SDS011;13033;50.936;5.334;2022-09-02T05:43:21;16.25;;;4.03;;
25023;SDS011;13033;50.936;5.334;2022-09-02T05:45:47;18.08;;;4.15;;
25023;SDS011;13033;50.936;5.334;2022-09-02T05:48:19;22.42;;;4.40;;
25023;SDS011;13033;50.936;5.334;2022-09-02T05:51:04;17.00;;;3.88;;
25023;SDS011;13033;50.936;5.334;2022-09-02T05:53:30;13.82;;;4.10;;
25023;SDS011;13033;50.936;5.334;2022-09-02T05:55:56;11.73;;;3.60;;
25023;SDS011;13033;50.936;5.334;2022-09-02T05:58:22;9.93;;;3.95;;
25023;SDS011;13033;50.936;5.334;2022-09-02T06:00:48;13.65;;;3.90;;
25023;SDS011;13033;50.936;5.334;2022-09-02T06:03:14;15.18;;;3.95;;
25023;SDS011;13033;50.936;5.334;2022-09-02T06:05:51;17.65;;;3.72;;
25023;SDS011;13033;50.936;5.334;2022-09-02T06:08:21;12.13;;;3.50;;
25023;SDS011;13033;50.936;5.334;2022-09-02T06:10:47;18.15;;;3.80;;
25023;SDS011;13033;50.936;5.334;2022-09-02T06:13:13;7.05;;;3.45;;
25023;SDS011;13033;50.936;5.334;2022-09-02T06:15:42;11.38;;;3.40;;
25023;SDS011;13033;50.936;5.334;2022-09-02T06:18:08;8.15;;;3.47;;
25023;SDS011;13033;50.936;5.334;2022-09-02T06:20:38;8.90;;;3.55;;
25023;SDS011;13033;50.936;5.334;2022-09-02T06:23:05;18.75;;;3.72;;
25023;SDS011;13033;50.936;5.334;2022-09-02T06:25:30;14.57;;;3.50;;
25023;SDS011;13033;50.936;5.334;2022-09-02T06:27:56;11.30;;;4.00;;
25023;SDS011;13033;50.936;5.334;2022-09-02T06:30:21;11.43;;;3.53;;
25023;SDS011;13033;50.936;5.334;2022-09-02T06:32:47;10.15;;;3.67;;
25023;SDS011;13033;50.936;5.334;2022-09-02T06:35:13;12.75;;;3.25;;
25023;SDS011;13033;50.936;5.334;2022-09-02T06:37:39;11.35;;;3.60;;
25023;SDS011;13033;50.936;5.334;2022-09-02T06:40:06;11.20;;;3.90;;
25023;SDS011;13033;50.936;5.334;2022-09-02T06:42:32;14.70;;;3.88;;
25023;SDS011;13033;50.936;5.334;2022-09-02T06:44:58;12.55;;;3.83;;
25023;SDS011;13033;50.936;5.334;2022-09-02T06:47:23;11.82;;;3.80;;
25023;SDS011;13033;50.936;5.334;2022-09-02T06:49:49;9.80;;;3.70;;
25023;SDS011;13033;50.936;5.334;2022-09-02T06:52:14;8.05;;;3.30;;
25023;SDS011;13033;50.936;5.334;2022-09-02T06:54:40;16.10;;;4.07;;
25023;SDS011;13033;50.936;5.334;2022-09-02T06:57:06;16.55;;;4.00;;
25023;SDS011;13033;50.936;5.334;2022-09-02T06:59:31;12.98;;;3.78;;
25023;SDS011;13033;50.936;5.334;2022-09-02T07:01:57;12.23;;;3.65;;
25023;SDS011;13033;50.936;5.334;2022-09-02T07:04:22;13.38;;;3.60;;
25023;SDS011;13033;50.936;5.334;2022-09-02T07:07:08;7.57;;;3.72;;
25023;SDS011;13033;50.936;5.334;2022-09-02T07:09:41;11.80;;;3.42;;
25023;SDS011;13033;50.936;5.334;2022-09-02T07:12:19;11.80;;;4.10;;
25023;SDS011;13033;50.936;5.334;2022-09-02T07:14:45;15.50;;;3.88;;
25023;SDS011;13033;50.936;5.334;2022-09-02T07:17:23;9.93;;;3.60;;
25023;SDS011;13033;50.936;5.334;2022-09-02T07:19:49;13.20;;;3.90;;
25023;SDS011;13033;50.936;5.334;2022-09-02T07:22:15;8.98;;;3.90;;
25023;SDS011;13033;50.936;5.334;2022-09-02T07:24:41;15.45;;;4.05;;
25023;SDS011;13033;50.936;5.334;2022-09-02T07:27:07;6.75;;;3.30;;
25023;SDS011;13033;50.936;5.334;2022-09-02T07:29:33;9.73;;;3.72;;
25023;SDS011;13033;50.936;5.334;2022-09-02T07:31:59;11.88;;;3.53;;
25023;SDS011;13033;50.936;5.334;2022-09-02T07:34:26;13.10;;;3.58;;
25023;SDS011;13033;50.936;5.334;2022-09-02T07:36:51;11.18;;;3.25;;
25023;SDS011;13033;50.936;5.334;2022-09-02T07:39:17;9.30;;;3.80;;
25023;SDS011;13033;50.936;5.334;2022-09-02T07:41:45;10.75;;;4.13;;
25023;SDS011;13033;50.936;5.334;2022-09-02T07:44:13;7.75;;;3.28;;
25023;SDS011;13033;50.936;5.334;2022-09-02T07:46:59;12.15;;;4.10;;
25023;SDS011;13033;50.936;5.334;2022-09-02T07:49:24;11.27;;;3.58;;
25023;SDS011;13033;50.936;5.334;2022-09-02T07:51:50;10.70;;;3.50;;
25023;SDS011;13033;50.936;5.334;2022-09-02T07:54:17;16.40;;;3.75;;
25023;SDS011;13033;50.936;5.334;2022-09-02T07:56:45;17.48;;;4.22;;
25023;SDS011;13033;50.936;5.334;2022-09-02T07:59:13;11.70;;;3.88;;
25023;SDS011;13033;50.936;5.334;2022-09-02T08:01:40;11.75;;;4.13;;
25023;SDS011;13033;50.936;5.334;2022-09-02T08:04:07;18.50;;;4.35;;
25023;SDS011;13033;50.936;5.334;2022-09-02T08:06:33;14.48;;;3.85;;
25023;SDS011;13033;50.936;5.334;2022-09-02T08:09:05;9.63;;;3.60;;
25023;SDS011;13033;50.936;5.334;2022-09-02T08:11:35;13.93;;;3.63;;
25023;SDS011;13033;50.936;5.334;2022-09-02T08:14:03;5.60;;;2.90;;
25023;SDS011;13033;50.936;5.334;2022-09-02T08:16:33;14.68;;;3.78;;
25023;SDS011;13033;50.936;5.334;2022-09-02T08:18:59;6.93;;;3.10;;
25023;SDS011;13033;50.936;5.334;2022-09-02T08:21:25;10.88;;;3.33;;
25023;SDS011;13033;50.936;5.334;2022-09-02T08:23:50;10.25;;;3.45;;
25023;SDS011;13033;50.936;5.334;2022-09-02T08:26:16;10.57;;;3.40;;
25023;SDS011;13033;50.936;5.334;2022-09-02T08:28:42;7.53;;;3.20;;
25023;SDS011;13033;50.936;5.334;2022-09-02T08:31:08;10.68;;;3.30;;
25023;SDS011;13033;50.936;5.334;2022-09-02T08:33:34;10.60;;;3.33;;
25023;SDS011;13033;50.936;5.334;2022-09-02T08:36:01;9.38;;;2.95;;
25023;SDS011;13033;50.936;5.334;2022-09-02T08:38:28;13.30;;;2.80;;
25023;SDS011;13033;50.936;5.334;2022-09-02T08:40:54;15.10;;;3.00;;
25023;SDS011;13033;50.936;5.334;2022-09-02T08:43:53;6.63;;;2.53;;
25023;SDS011;13033;50.936;5.334;2022-09-02T08:46:14;4.78;;;2.70;;
25023;SDS011;13033;50.936;5.334;2022-09-02T08:51:12;4.82;;;2.55;;
25023;SDS011;13033;50.936;5.334;2022-09-02T08:53:55;10.63;;;2.63;;
25023;SDS011;13033;50.936;5.334;2022-09-02T08:56:42;8.27;;;2.70;;
25023;SDS011;13033;50.936;5.334;2022-09-02T08:59:08;10.88;;;3.15;;
25023;SDS011;13033;50.936;5.334;2022-09-02T09:01:51;8.80;;;2.58;;
25023;SDS011;13033;50.936;5.334;2022-09-02T09:07:25;8.82;;;2.53;;
25023;SDS011;13033;50.936;5.334;2022-09-02T09:12:43;5.32;;;2.97;;
25023;SDS011;13033;50.936;5.334;2022-09-02T09:20:28;4.50;;;2.38;;
25023;SDS011;13033;50.936;5.334;2022-09-02T09:22:57;9.80;;;2.70;;
25023;SDS011;13033;50.936;5.334;2022-09-02T09:25:24;5.32;;;2.60;;
25023;SDS011;13033;50.936;5.334;2022-09-02T09:27:57;7.97;;;2.38;;
25023;SDS011;13033;50.936;5.334;2022-09-02T09:30:24;6.75;;;2.40;;
25023;SDS011;13033;50.936;5.334;2022-09-02T09:32:55;6.63;;;2.40;;
25023;SDS011;13033;50.936;5.334;2022-09-02T09:35:23;4.82;;;2.38;;
25023;SDS011;13033;50.936;5.334;2022-09-02T09:37:52;7.10;;;2.42;;
25023;SDS011;13033;50.936;5.334;2022-09-02T09:42:56;5.93;;;2.10;;
25023;SDS011;13033;50.936;5.334;2022-09-02T09:45:33;6.63;;;2.10;;
25023;SDS011;13033;50.936;5.334;2022-09-02T09:50:43;12.35;;;2.38;;
25023;SDS011;13033;50.936;5.334;2022-09-02T09:53:19;7.00;;;2.42;;
25023;SDS011;13033;50.936;5.334;2022-09-02T09:55:57;7.88;;;2.50;;
25023;SDS011;13033;50.936;5.334;2022-09-02T09:58:32;4.65;;;2.45;;
25023;SDS011;13033;50.936;5.334;2022-09-02T10:00:58;8.20;;;2.28;;
25023;SDS011;13033;50.936;5.334;2022-09-02T10:06:37;4.90;;;2.13;;
25023;SDS011;13033;50.936;5.334;2022-09-02T10:09:51;6.05;;;2.42;;
25023;SDS011;13033;50.936;5.334;2022-09-02T10:12:07;7.10;;;2.22;;
25023;SDS011;13033;50.936;5.334;2022-09-02T10:22:30;6.57;;;2.15;;
25023;SDS011;13033;50.936;5.334;2022-09-02T10:33:21;8.18;;;2.08;;
25023;SDS011;13033;50.936;5.334;2022-09-02T10:38:53;6.55;;;1.90;;
25023;SDS011;13033;50.936;5.334;2022-09-02T10:41:42;4.50;;;2.22;;
25023;SDS011;13033;50.936;5.334;2022-09-02T11:00:15;5.50;;;2.10;;
25023;SDS011;13033;50.936;5.334;2022-09-02T11:02:53;3.65;;;1.83;;
25023;SDS011;13033;50.936;5.334;2022-09-02T11:05:27;2.47;;;1.90;;
25023;SDS011;13033;50.936;5.334;2022-09-02T11:27:07;5.65;;;2.05;;
25023;SDS011;13033;50.936;5.334;2022-09-02T11:30:15;13.27;;;2.65;;
25023;SDS011;13033;50.936;5.334;2022-09-02T11:35:38;2.88;;;2.10;;
25023;SDS011;13033;50.936;5.334;2022-09-02T11:43:48;3.17;;;1.83;;
25023;SDS011;13033;50.936;5.334;2022-09-02T11:52:17;4.05;;;1.92;;
25023;SDS011;13033;50.936;5.334;2022-09-02T11:55:18;5.30;;;2.03;;
25023;SDS011;13033;50.936;5.334;2022-09-02T11:57:51;4.45;;;1.88;;
25023;SDS011;13033;50.936;5.334;2022-09-02T12:00:31;7.15;;;2.38;;
25023;SDS011;13033;50.936;5.334;2022-09-02T12:03:23;8.35;;;2.20;;
25023;SDS011;13033;50.936;5.334;2022-09-02T12:06:07;3.67;;;1.73;;
25023;SDS011;13033;50.936;5.334;2022-09-02T12:11:08;3.25;;;2.00;;
25023;SDS011;13033;50.936;5.334;2022-09-02T12:13:54;6.68;;;2.10;;
25023;SDS011;13033;50.936;5.334;2022-09-02T12:21:31;6.05;;;2.25;;
25023;SDS011;13033;50.936;5.334;2022-09-02T12:26:28;7.13;;;2.53;;
25023;SDS011;13033;50.936;5.334;2022-09-02T12:31:52;7.68;;;2.05;;
25023;SDS011;13033;50.936;5.334;2022-09-02T12:36:45;2.95;;;1.80;;
25023;SDS011;13033;50.936;5.334;2022-09-02T12:44:42;5.90;;;2.25;;
25023;SDS011;13033;50.936;5.334;2022-09-02T12:50:10;6.10;;;2.70;;
25023;SDS011;13033;50.936;5.334;2022-09-02T12:52:45;3.63;;;2.00;;
25023;SDS011;13033;50.936;5.334;2022-09-02T12:57:48;3.53;;;1.80;;
25023;SDS011;13033;50.936;5.334;2022-09-02T13:06:10;4.15;;;1.98;;
25023;SDS011;13033;50.936;5.334;2022-09-02T13:14:51;5.97;;;2.33;;
25023;SDS011;13033;50.936;5.334;2022-09-02T13:20:08;3.15;;;1.80;;
25023;SDS011;13033;50.936;5.334;2022-09-02T13:23:05;2.28;;;2.00;;
25023;SDS011;13033;50.936;5.334;2022-09-02T13:31:30;3.25;;;1.75;;
25023;SDS011;13033;50.936;5.334;2022-09-02T13:33:59;2.60;;;1.90;;
25023;SDS011;13033;50.936;5.334;2022-09-02T13:36:28;3.83;;;1.60;;
25023;SDS011;13033;50.936;5.334;2022-09-02T13:39:08;3.80;;;2.00;;
25023;SDS011;13033;50.936;5.334;2022-09-02T13:41:41;6.05;;;2.30;;
25023;SDS011;13033;50.936;5.334;2022-09-02T13:44:12;8.45;;;2.40;;
25023;SDS011;13033;50.936;5.334;2022-09-02T13:46:45;3.33;;;1.88;;
25023;SDS011;13033;50.936;5.334;2022-09-02T13:49:25;3.47;;;1.98;;
25023;SDS011;13033;50.936;5.334;2022-09-02T13:51:54;2.70;;;2.17;;
25023;SDS011;13033;50.936;5.334;2022-09-02T13:54:25;6.43;;;2.35;;
25023;SDS011;13033;50.936;5.334;2022-09-02T13:56:55;2.67;;;2.05;;
25023;SDS011;13033;50.936;5.334;2022-09-02T14:01:58;4.32;;;2.03;;
25023;SDS011;13033;50.936;5.334;2022-09-02T14:04:24;2.13;;;1.70;;
25023;SDS011;13033;50.936;5.334;2022-09-02T14:06:51;2.13;;;1.92;;
25023;SDS011;13033;50.936;5.334;2022-09-02T14:09:23;3.50;;;2.10;;
25023;SDS011;13033;50.936;5.334;2022-09-02T14:11:50;4.28;;;2.10;;
25023;SDS011;13033;50.936;5.334;2022-09-02T14:14:18;2.10;;;1.90;;
25023;SDS011;13033;50.936;5.334;2022-09-02T14:16:47;2.33;;;2.10;;
25023;SDS011;13033;50.936;5.334;2022-09-02T14:24:25;5.32;;;1.90;;
25023;SDS011;13033;50.936;5.334;2022-09-02T14:26:53;5.65;;;1.90;;
25023;SDS011;13033;50.936;5.334;2022-09-02T14:29:24;4.20;;;1.80;;
25023;SDS011;13033;50.936;5.334;2022-09-02T14:34:44;3.33;;;2.10;;
25023;SDS011;13033;50.936;5.334;2022-09-02T14:42:45;2.40;;;2.20;;
25023;SDS011;13033;50.936;5.334;2022-09-02T14:45:13;4.18;;;2.05;;
25023;SDS011;13033;50.936;5.334;2022-09-02T14:47:48;3.42;;;1.58;;
25023;SDS011;13033;50.936;5.334;2022-09-02T14:50:14;2.35;;;1.55;;
25023;SDS011;13033;50.936;5.334;2022-09-02T14:52:47;2.90;;;1.80;;
25023;SDS011;13033;50.936;5.334;2022-09-02T14:58:05;4.25;;;1.88;;
25023;SDS011;13033;50.936;5.334;2022-09-02T15:00:31;3.83;;;1.67;;
25023;SDS011;13033;50.936;5.334;2022-09-02T15:02:56;5.72;;;1.80;;
25023;SDS011;13033;50.936;5.334;2022-09-02T15:05:24;1.95;;;1.60;;
25023;SDS011;13033;50.936;5.334;2022-09-02T15:07:50;4.53;;;1.70;;
25023;SDS011;13033;50.936;5.334;2022-09-02T15:10:16;3.55;;;1.92;;
25023;SDS011;13033;50.936;5.334;2022-09-02T15:12:51;3.03;;;1.98;;
25023;SDS011;13033;50.936;5.334;2022-09-02T15:15:19;2.88;;;1.73;;
25023;SDS011;13033;50.936;5.334;2022-09-02T15:17:44;4.43;;;2.15;;
25023;SDS011;13033;50.936;5.334;2022-09-02T15:20:10;2.92;;;2.03;;
25023;SDS011;13033;50.936;5.334;2022-09-02T15:22:36;3.47;;;1.90;;
25023;SDS011;13033;50.936;5.334;2022-09-02T15:25:02;3.45;;;1.60;;
25023;SDS011;13033;50.936;5.334;2022-09-02T15:27:31;3.63;;;1.77;;
25023;SDS011;13033;50.936;5.334;2022-09-02T15:29:58;2.88;;;1.95;;
25023;SDS011;13033;50.936;5.334;2022-09-02T15:32:25;5.75;;;1.90;;
25023;SDS011;13033;50.936;5.334;2022-09-02T15:34:51;7.20;;;1.95;;
25023;SDS011;13033;50.936;5.334;2022-09-02T15:37:17;10.85;;;1.92;;
25023;SDS011;13033;50.936;5.334;2022-09-02T15:39:43;2.83;;;1.92;;
25023;SDS011;13033;50.936;5.334;2022-09-02T15:42:08;5.50;;;1.88;;
25023;SDS011;13033;50.936;5.334;2022-09-02T15:44:34;3.88;;;1.60;;
25023;SDS011;13033;50.936;5.334;2022-09-02T15:47:00;4.63;;;2.25;;
25023;SDS011;13033;50.936;5.334;2022-09-02T15:49:26;3.05;;;1.58;;
25023;SDS011;13033;50.936;5.334;2022-09-02T15:51:51;5.30;;;1.90;;
25023;SDS011;13033;50.936;5.334;2022-09-02T15:54:19;2.63;;;1.73;;
25023;SDS011;13033;50.936;5.334;2022-09-02T15:56:47;3.90;;;1.80;;
25023;SDS011;13033;50.936;5.334;2022-09-02T15:59:14;3.45;;;1.95;;
25023;SDS011;13033;50.936;5.334;2022-09-02T16:01:45;1.92;;;1.50;;
25023;SDS011;13033;50.936;5.334;2022-09-02T16:04:12;3.03;;;2.10;;
25023;SDS011;13033;50.936;5.334;2022-09-02T16:06:38;2.63;;;1.98;;
25023;SDS011;13033;50.936;5.334;2022-09-02T16:09:07;2.83;;;1.90;;
25023;SDS011;13033;50.936;5.334;2022-09-02T16:11:38;2.72;;;1.90;;
25023;SDS011;13033;50.936;5.334;2022-09-02T16:14:04;6.47;;;2.10;;
25023;SDS011;13033;50.936;5.334;2022-09-02T16:16:31;6.00;;;1.80;;
25023;SDS011;13033;50.936;5.334;2022-09-02T16:18:57;3.45;;;2.00;;
25023;SDS011;13033;50.936;5.334;2022-09-02T16:21:23;3.92;;;2.70;;
25023;SDS011;13033;50.936;5.334;2022-09-02T16:23:49;4.22;;;2.25;;
25023;SDS011;13033;50.936;5.334;2022-09-02T16:28:48;5.85;;;2.42;;
25023;SDS011;13033;50.936;5.334;2022-09-02T16:31:16;3.20;;;1.88;;
25023;SDS011;13033;50.936;5.334;2022-09-02T16:33:44;4.72;;;1.95;;
25023;SDS011;13033;50.936;5.334;2022-09-02T16:36:19;5.40;;;2.17;;
25023;SDS011;13033;50.936;5.334;2022-09-02T16:38:45;6.00;;;2.08;;
25023;SDS011;13033;50.936;5.334;2022-09-02T16:44:17;6.88;;;2.30;;
25023;SDS011;13033;50.936;5.334;2022-09-02T16:46:44;5.05;;;2.17;;
25023;SDS011;13033;50.936;5.334;2022-09-02T16:49:12;4.38;;;1.80;;
25023;SDS011;13033;50.936;5.334;2022-09-02T16:51:42;5.20;;;1.70;;
25023;SDS011;13033;50.936;5.334;2022-09-02T16:54:08;4.75;;;2.08;;
25023;SDS011;13033;50.936;5.334;2022-09-02T16:56:34;2.40;;;1.30;;
25023;SDS011;13033;50.936;5.334;2022-09-02T16:59:02;6.28;;;2.05;;
25023;SDS011;13033;50.936;5.334;2022-09-02T17:01:29;4.10;;;1.73;;
25023;SDS011;13033;50.936;5.334;2022-09-02T17:03:56;3.22;;;1.70;;
25023;SDS011;13033;50.936;5.334;2022-09-02T17:06:24;2.80;;;2.58;;
25023;SDS011;13033;50.936;5.334;2022-09-02T17:08:50;7.68;;;1.73;;
25023;SDS011;13033;50.936;5.334;2022-09-02T17:11:19;5.28;;;1.45;;
25023;SDS011;13033;50.936;5.334;2022-09-02T17:13:51;5.82;;;1.70;;
25023;SDS011;13033;50.936;5.334;2022-09-02T17:16:20;4.35;;;2.15;;
25023;SDS011;13033;50.936;5.334;2022-09-02T17:18:47;6.90;;;2.95;;
25023;SDS011;13033;50.936;5.334;2022-09-02T17:21:18;5.90;;;2.53;;
25023;SDS011;13033;50.936;5.334;2022-09-02T17:23:49;5.38;;;2.50;;
25023;SDS011;13033;50.936;5.334;2022-09-02T17:26:16;7.15;;;1.67;;
25023;SDS011;13033;50.936;5.334;2022-09-02T17:28:42;2.92;;;1.90;;
25023;SDS011;13033;50.936;5.334;2022-09-02T17:31:44;5.38;;;2.15;;
25023;SDS011;13033;50.936;5.334;2022-09-02T17:34:04;8.60;;;2.35;;
25023;SDS011;13033;50.936;5.334;2022-09-02T17:36:32;5.63;;;2.10;;
25023;SDS011;13033;50.936;5.334;2022-09-02T17:39:03;6.60;;;2.40;;